createdAt,value
2018-05-10T00:00:55.659Z,16.80
2018-05-10T00:04:58.481Z,16.80
2018-05-10T00:09:03.055Z,16.70
2018-05-10T00:13:05.574Z,16.80
2018-05-10T00:17:08.891Z,16.80
2018-05-10T00:21:12.234Z,16.80
2018-05-10T00:25:14.779Z,16.70
2018-05-10T00:29:17.374Z,16.80
2018-05-10T00:33:20.702Z,16.80
2018-05-10T00:37:23.271Z,16.70
2018-05-10T00:41:26.595Z,16.80
2018-05-10T00:45:29.889Z,16.90
2018-05-10T00:49:32.474Z,16.80
2018-05-10T00:53:34.999Z,16.90
2018-05-10T00:57:37.562Z,16.90
2018-05-10T01:01:40.847Z,17.00
2018-05-10T01:05:47.534Z,16.80
2018-05-10T01:09:50.057Z,16.70
2018-05-10T01:13:53.475Z,16.60
2018-05-10T01:17:56.976Z,16.50
2018-05-10T01:21:59.530Z,16.60
2018-05-10T01:26:02.818Z,16.60
2018-05-10T01:30:05.499Z,16.60
2018-05-10T01:34:08.011Z,16.50
2018-05-10T01:38:10.573Z,16.50
2018-05-10T01:42:13.863Z,16.60
2018-05-10T01:46:18.536Z,16.50
2018-05-10T01:50:21.058Z,16.70
2018-05-10T01:54:24.466Z,16.80
2018-05-10T01:58:34.787Z,16.90
2018-05-10T02:02:37.371Z,16.80
2018-05-10T02:06:40.658Z,16.90
2018-05-10T02:10:43.218Z,16.90
2018-05-10T02:14:45.752Z,16.90
2018-05-10T02:18:48.720Z,17.00
2018-05-10T02:22:52.024Z,17.10
2018-05-10T02:26:54.706Z,17.10
2018-05-10T02:30:59.255Z,17.20
2018-05-10T02:35:01.895Z,17.20
2018-05-10T02:39:04.428Z,17.10
2018-05-10T02:43:07.114Z,17.10
2018-05-10T02:47:09.661Z,17.10
2018-05-10T02:51:12.269Z,17.10
2018-05-10T02:55:14.792Z,17.10
2018-05-10T02:59:17.369Z,17.00
2018-05-10T03:03:19.934Z,17.00
2018-05-10T03:07:22.483Z,17.00
2018-05-10T03:11:25.015Z,16.90
2018-05-10T03:15:27.570Z,16.90
2018-05-10T03:19:31.866Z,16.90
2018-05-10T03:23:34.427Z,16.90
2018-05-10T03:27:37.718Z,16.90
2018-05-10T03:31:40.371Z,16.80
2018-05-10T03:35:42.911Z,16.80
2018-05-10T03:39:45.478Z,16.80
2018-05-10T03:43:51.815Z,16.70
2018-05-10T03:47:54.377Z,16.60
2018-05-10T03:51:57.671Z,16.60
2018-05-10T03:56:00.225Z,16.60
2018-05-10T04:00:03.743Z,16.50
2018-05-10T04:04:27.982Z,16.40
2018-05-10T04:08:42.418Z,16.40
2018-05-10T04:12:45.012Z,16.40
2018-05-10T04:16:47.555Z,16.30
2018-05-10T04:20:51.047Z,16.30
2018-05-10T04:24:53.584Z,16.30
2018-05-10T04:28:56.899Z,16.20
2018-05-10T04:33:00.184Z,16.10
2018-05-10T04:37:02.754Z,16.10
2018-05-10T04:41:06.054Z,16.10
2018-05-10T04:45:09.461Z,16.10
2018-05-10T04:49:11.983Z,16.10
2018-05-10T04:53:15.623Z,16.30
2018-05-10T04:57:18.155Z,16.20
2018-05-10T05:01:20.730Z,16.30
2018-05-10T05:05:24.019Z,16.40
2018-05-10T05:09:26.575Z,16.30
2018-05-10T05:13:29.100Z,16.40
2018-05-10T05:17:31.990Z,16.60
2018-05-10T05:21:34.627Z,16.60
2018-05-10T05:25:37.108Z,16.70
2018-05-10T05:29:39.641Z,16.60
2018-05-10T05:33:42.282Z,16.60
2018-05-10T05:37:45.399Z,16.40
2018-05-10T05:41:47.955Z,16.40
2018-05-10T05:45:50.478Z,16.30
2018-05-10T05:49:53.035Z,16.30
2018-05-10T05:53:56.335Z,16.30
2018-05-10T05:57:58.903Z,16.30
2018-05-10T06:02:01.445Z,16.40
2018-05-10T06:06:04.384Z,16.40
2018-05-10T06:10:09.602Z,16.40
2018-05-10T06:14:12.159Z,16.40
2018-05-10T06:18:15.460Z,16.50
2018-05-10T06:22:18.802Z,16.60
2018-05-10T06:26:21.332Z,16.50
2018-05-10T06:30:23.894Z,16.70
2018-05-10T06:34:26.411Z,16.80
2018-05-10T06:38:29.753Z,16.70
2018-05-10T06:42:32.313Z,16.70
2018-05-10T06:46:34.876Z,16.70
2018-05-10T06:50:37.446Z,16.60
2018-05-10T06:54:40.033Z,16.50
2018-05-10T06:58:42.543Z,16.50
2018-05-10T07:02:45.094Z,16.40
2018-05-10T07:06:47.626Z,16.40
2018-05-10T07:10:50.186Z,16.30
2018-05-10T07:14:54.720Z,16.40
2018-05-10T07:18:57.603Z,16.40
2018-05-10T07:23:00.147Z,16.20
2018-05-10T07:27:02.734Z,16.10
2018-05-10T07:31:05.255Z,16.10
2018-05-10T07:35:08.906Z,16.10
2018-05-10T07:39:12.199Z,16.00
2018-05-10T07:43:14.935Z,15.90
2018-05-10T07:47:18.231Z,16.00
2018-05-10T07:51:20.795Z,15.90
2018-05-10T07:55:23.356Z,15.90
2018-05-10T07:59:25.914Z,15.90
2018-05-10T08:03:28.488Z,15.90
2018-05-10T08:07:31.087Z,15.90
2018-05-10T08:11:34.384Z,15.70
2018-05-10T08:15:40.832Z,15.60
2018-05-10T08:19:49.534Z,15.70
2018-05-10T08:23:54.216Z,15.60
2018-05-10T08:27:57.510Z,15.70
2018-05-10T08:32:00.150Z,15.70
2018-05-10T08:36:03.447Z,15.50
2018-05-10T08:40:11.648Z,15.50
2018-05-10T08:44:18.681Z,15.60
2018-05-10T08:48:22.230Z,15.70
2018-05-10T08:52:24.751Z,15.70
2018-05-10T08:56:28.082Z,15.70
2018-05-10T09:00:30.606Z,15.60
2018-05-10T09:04:33.327Z,15.70
2018-05-10T09:08:35.872Z,15.60
2018-05-10T09:12:40.501Z,15.60
2018-05-10T09:16:48.132Z,15.60
2018-05-10T09:20:52.436Z,15.40
2018-05-10T09:24:55.774Z,15.40
2018-05-10T09:28:58.332Z,15.30
2018-05-10T09:33:00.859Z,15.40
2018-05-10T09:37:03.730Z,15.30
2018-05-10T09:41:07.274Z,15.30
2018-05-10T09:45:09.839Z,15.30
2018-05-10T09:49:12.364Z,15.40
2018-05-10T09:53:15.109Z,15.50
2018-05-10T09:57:17.647Z,15.40
2018-05-10T10:01:20.204Z,15.40
2018-05-10T10:05:22.723Z,15.50
2018-05-10T10:09:25.314Z,15.60
2018-05-10T10:13:27.940Z,15.50
2018-05-10T10:17:30.587Z,15.50
2018-05-10T10:21:33.038Z,15.50
2018-05-10T10:25:35.742Z,15.40
2018-05-10T10:29:38.265Z,15.50
2018-05-10T10:33:40.909Z,15.50
2018-05-10T10:41:31.272Z,15.60
2018-05-10T10:45:33.843Z,15.50
2018-05-10T10:49:37.433Z,15.40
2018-05-10T10:53:40.716Z,15.30
2018-05-10T10:57:43.267Z,15.30
2018-05-10T11:01:45.810Z,15.30
2018-05-10T11:05:49.230Z,15.30
2018-05-10T11:09:51.747Z,15.20
2018-05-10T11:13:56.293Z,15.40
2018-05-10T11:17:58.807Z,15.40
2018-05-10T11:22:03.643Z,15.40
2018-05-10T11:26:12.291Z,15.30
2018-05-10T11:30:16.045Z,15.30
2018-05-10T11:34:19.538Z,15.30
2018-05-10T11:38:22.099Z,15.40
2018-05-10T11:42:25.405Z,15.50
2018-05-10T11:46:30.676Z,15.40
2018-05-10T11:50:35.224Z,15.40
2018-05-10T11:54:37.779Z,15.60
2018-05-10T11:58:40.303Z,15.60
2018-05-10T12:02:43.949Z,15.70
2018-05-10T12:06:46.513Z,15.80
2018-05-10T12:10:53.430Z,15.80
2018-05-10T12:14:55.942Z,15.80
2018-05-10T12:18:58.590Z,15.80
2018-05-10T12:23:01.456Z,15.90
2018-05-10T12:27:05.926Z,15.90
2018-05-10T12:31:09.493Z,15.80
2018-05-10T12:35:12.113Z,15.80
2018-05-10T12:39:15.395Z,15.50
2018-05-10T12:43:19.367Z,15.50
2018-05-10T12:47:22.699Z,15.40
2018-05-10T12:51:27.991Z,15.40
2018-05-10T12:55:31.471Z,15.30
2018-05-10T12:59:34.160Z,15.40
2018-05-10T13:03:36.992Z,15.40
2018-05-10T13:07:41.561Z,15.40
2018-05-10T13:11:44.855Z,15.30
2018-05-10T13:15:49.530Z,15.20
2018-05-10T13:19:53.854Z,15.40
2018-05-10T13:23:57.459Z,15.40
2018-05-10T13:28:01.935Z,15.50
2018-05-10T13:32:04.627Z,15.40
2018-05-10T13:36:07.152Z,15.30
2018-05-10T13:40:09.722Z,15.30
2018-05-10T13:44:12.247Z,15.40
2018-05-10T13:48:15.799Z,15.50
2018-05-10T13:52:18.315Z,15.30
2018-05-10T13:56:21.855Z,15.30
2018-05-10T14:00:25.162Z,15.30
2018-05-10T14:04:27.756Z,15.20
2018-05-10T14:08:30.267Z,15.30
2018-05-10T14:12:32.852Z,15.30
2018-05-10T14:16:35.469Z,15.50
2018-05-10T14:20:39.379Z,15.40
2018-05-10T14:24:41.943Z,15.40
2018-05-10T14:28:45.660Z,15.40
2018-05-10T14:32:48.192Z,15.40
2018-05-10T14:36:52.527Z,15.60
2018-05-10T14:40:55.924Z,15.60
2018-05-10T14:44:58.557Z,15.60
2018-05-10T14:49:07.893Z,15.60
2018-05-10T14:53:11.983Z,15.60
2018-05-10T14:57:16.302Z,16.00
2018-05-10T15:01:19.839Z,15.90
2018-05-10T15:05:23.133Z,16.10
2018-05-10T15:09:25.730Z,16.20
2018-05-10T15:13:28.277Z,16.20
2018-05-10T15:17:31.214Z,16.30
2018-05-10T15:21:33.774Z,16.20
2018-05-10T15:25:36.357Z,16.20
2018-05-10T15:29:39.700Z,16.20
2018-05-10T15:33:43.278Z,16.30
2018-05-10T15:37:48.504Z,16.50
2018-05-10T15:41:51.058Z,16.50
2018-05-10T15:45:53.599Z,16.60
2018-05-10T15:49:56.162Z,16.60
2018-05-10T15:53:59.457Z,16.40
2018-05-10T15:58:02.019Z,16.40
2018-05-10T16:02:06.506Z,16.30
2018-05-10T16:06:09.605Z,16.20
2018-05-10T16:10:12.374Z,16.30
2018-05-10T16:14:15.062Z,16.20
2018-05-10T16:18:17.603Z,16.20
2018-05-10T16:22:24.787Z,16.20
2018-05-10T16:26:27.341Z,16.20
2018-05-10T16:30:29.935Z,16.10
2018-05-10T16:34:32.743Z,16.10
2018-05-10T16:38:36.387Z,16.10
2018-05-10T16:42:40.107Z,16.10
2018-05-10T16:46:43.220Z,16.10
2018-05-10T16:50:45.902Z,16.00
2018-05-10T16:54:49.215Z,16.00
2018-05-10T16:58:51.782Z,16.00
2018-05-10T17:02:55.147Z,16.00
2018-05-10T17:06:57.703Z,16.00
2018-05-10T17:11:00.950Z,16.00
2018-05-10T17:15:05.350Z,16.00
2018-05-10T17:19:07.992Z,16.10
2018-05-10T17:23:10.531Z,16.20
2018-05-10T17:27:13.095Z,16.20
2018-05-10T17:31:15.672Z,16.20
2018-05-10T17:35:19.182Z,16.20
2018-05-10T17:39:21.707Z,16.20
2018-05-10T17:43:25.058Z,16.10
2018-05-10T17:47:27.635Z,16.00
2018-05-10T17:51:31.368Z,15.90
2018-05-10T17:55:34.662Z,15.80
2018-05-10T17:59:37.207Z,15.80
2018-05-10T18:03:39.762Z,15.70
2018-05-10T18:07:42.322Z,15.70
2018-05-10T18:11:44.876Z,15.60
2018-05-10T18:15:47.468Z,15.50
2018-05-10T18:19:50.003Z,15.40
2018-05-10T18:23:52.643Z,15.50
2018-05-10T18:27:55.247Z,15.50
2018-05-10T18:31:58.771Z,15.40
2018-05-10T18:36:02.062Z,15.30
2018-05-10T18:40:04.634Z,15.30
2018-05-10T18:44:08.194Z,15.40
2018-05-10T18:48:11.470Z,15.30
2018-05-10T18:52:14.000Z,15.20
2018-05-10T18:56:16.572Z,15.20
2018-05-10T19:00:19.137Z,15.00
2018-05-10T19:04:21.678Z,15.10
2018-05-10T19:08:24.236Z,15.00
2018-05-10T19:12:26.807Z,14.90
2018-05-10T19:16:30.274Z,14.80
2018-05-10T19:20:32.833Z,14.80
2018-05-10T19:24:38.963Z,14.70
2018-05-10T19:28:41.836Z,14.60
2018-05-10T19:32:44.371Z,14.50
2018-05-10T19:36:46.930Z,14.40
2018-05-10T19:40:50.255Z,14.40
2018-05-10T19:44:54.865Z,14.30
2018-05-10T19:49:01.155Z,14.40
2018-05-10T19:53:03.789Z,14.40
2018-05-10T19:57:06.379Z,14.40
2018-05-10T20:01:08.931Z,14.40
2018-05-10T20:05:11.660Z,14.30
2018-05-10T20:09:15.142Z,14.30
2018-05-10T20:13:17.673Z,14.30
2018-05-10T20:17:22.002Z,14.20
2018-05-10T20:21:24.575Z,14.20
2018-05-10T20:25:27.244Z,14.20
2018-05-10T20:29:29.819Z,14.20
2018-05-10T20:33:32.429Z,14.20
2018-05-10T20:37:34.954Z,14.10
2018-05-10T20:41:37.554Z,14.20
2018-05-10T20:45:41.099Z,14.00
2018-05-10T20:49:43.794Z,14.00
2018-05-10T20:53:46.355Z,14.00
2018-05-10T20:57:51.264Z,13.90
2018-05-10T21:01:53.952Z,13.80
2018-05-10T21:05:56.468Z,13.70
2018-05-10T21:10:00.842Z,13.80
2018-05-10T21:14:03.755Z,13.70
2018-05-10T21:18:07.386Z,13.80
2018-05-10T21:22:09.962Z,13.70
2018-05-10T21:26:12.678Z,13.70
2018-05-10T21:30:16.494Z,13.70
2018-05-10T21:34:19.146Z,13.70
2018-05-10T21:38:21.706Z,13.70
2018-05-10T21:42:25.224Z,13.60
2018-05-10T21:46:27.781Z,13.60
2018-05-10T21:50:30.347Z,13.60
2018-05-10T21:54:32.996Z,13.70
2018-05-10T21:58:35.523Z,13.70
2018-05-10T22:02:38.078Z,13.70
2018-05-10T22:06:40.670Z,13.50
2018-05-10T22:10:43.504Z,13.50
2018-05-10T22:14:46.023Z,13.60
2018-05-10T22:18:48.988Z,13.50
2018-05-10T22:22:54.421Z,13.30
2018-05-10T22:26:56.979Z,13.20
2018-05-10T22:30:59.742Z,13.10
2018-05-10T22:35:02.373Z,13.10
2018-05-10T22:39:06.934Z,12.80
2018-05-10T22:43:09.579Z,12.70
2018-05-10T22:47:12.128Z,12.50
2018-05-10T22:51:14.681Z,12.60
2018-05-10T22:55:17.204Z,12.50
2018-05-10T22:59:20.515Z,12.20
2018-05-10T23:03:24.021Z,12.20
2018-05-10T23:07:26.575Z,12.20
2018-05-10T23:11:29.243Z,12.10
2018-05-10T23:15:31.914Z,12.10
2018-05-10T23:19:34.436Z,12.10
2018-05-10T23:23:37.123Z,11.90
2018-05-10T23:27:39.819Z,11.90
2018-05-10T23:31:42.726Z,11.90
2018-05-10T23:35:45.242Z,11.80
2018-05-10T23:39:47.799Z,11.70
2018-05-10T23:43:50.333Z,11.60
2018-05-10T23:47:52.927Z,11.50
2018-05-10T23:51:56.221Z,11.40
2018-05-10T23:55:58.861Z,11.40
